AFR722 LFPG-FZAA
Flight info
| Callsign | AFR722 |
|---|---|
| Flight time | N/A |
| Altitude | 35000 |
| Route | ERIXU DCT ETAMO DCT ADEKA/N0493F370 DCT MOKDI DCT MEN DCT AMLIR DCT FJR DCT DIVKO DCT JUSQO DCT FIRRA DCT SUXER DCT KAMER UM998 CSO UA605 RIMEL UR985 IMN M999 SEB/N0480F390 M214 GARIN DCT ILDOR UM214 PODGA/N0488F380 DCT IKREV/N0486F390 DCT NASED/N0484F400 DCT ANIPA DCT KISDU DCT EVIBO DCT AMSIK DCT GUSAR GUSAR1A |
| Aircraft | A359/H-SDE2E3GHIJ3J4J5LM1ORWXY/LB1D1 |
Departure
| Time | 2026-05-06 08:58 |
|---|---|
| Airport | Charles de Gaulle International Airport (LFPG) |
Arrival
| Time | N/A |
|---|---|
| Airport | Ndjili International Airport (FZAA) |
| Time | Latitude | Longitude | Altitude | Speed | Heading |
|---|---|---|---|---|---|
| 2026-05-06 08:32 | 49.00139 | 2.58116 | 0 ft | 0 kts | 356° |
| 2026-05-06 08:48 | 49.00123 | 2.58119 | 155 ft | 4 kts | 341° |
| 2026-05-06 08:48 | 49.00101 | 2.58138 | 297 ft | 4 kts | 309° |
| 2026-05-06 08:48 | 49.00089 | 2.58170 | 366 ft | 4 kts | 279° |
| 2026-05-06 08:49 | 49.00088 | 2.58193 | 366 ft | 1 kts | 265° |
| 2026-05-06 08:53 | 49.00080 | 2.58129 | 366 ft | 14 kts | 251° |
| 2026-05-06 08:53 | 49.00069 | 2.57974 | 362 ft | 16 kts | 267° |
| 2026-05-06 08:53 | 49.00037 | 2.57793 | 362 ft | 20 kts | 239° |
| 2026-05-06 08:53 | 48.99975 | 2.57587 | 366 ft | 23 kts | 258° |
| 2026-05-06 08:54 | 48.99961 | 2.57330 | 363 ft | 26 kts | 265° |
| 2026-05-06 08:54 | 48.99945 | 2.57041 | 367 ft | 29 kts | 265° |
| 2026-05-06 08:54 | 48.99923 | 2.56727 | 361 ft | 31 kts | 263° |
| 2026-05-06 08:54 | 48.99898 | 2.56388 | 363 ft | 33 kts | 264° |
| 2026-05-06 08:55 | 48.99896 | 2.56027 | 360 ft | 35 kts | 277° |
| 2026-05-06 08:55 | 48.99942 | 2.55671 | 362 ft | 37 kts | 282° |
| 2026-05-06 08:55 | 48.99975 | 2.55290 | 366 ft | 36 kts | 264° |
| 2026-05-06 08:55 | 48.99912 | 2.55013 | 360 ft | 18 kts | 195° |
| 2026-05-06 08:56 | 48.99808 | 2.55061 | 367 ft | 16 kts | 160° |
| 2026-05-06 08:56 | 48.99710 | 2.55106 | 363 ft | 17 kts | 160° |
| 2026-05-06 08:56 | 48.99659 | 2.55209 | 368 ft | 7 kts | 124° |
| 2026-05-06 08:56 | 48.99652 | 2.55227 | 365 ft | 6 kts | 124° |
| 2026-05-06 08:57 | 48.99651 | 2.55229 | 365 ft | 6 kts | 124° |
| 2026-05-06 08:57 | 48.99607 | 2.55345 | 362 ft | 28 kts | 105° |
| 2026-05-06 08:57 | 48.99606 | 2.55881 | 360 ft | 81 kts | 85° |
| 2026-05-06 08:57 | 48.99671 | 2.57129 | 363 ft | 154 kts | 85° |
| 2026-05-06 08:58 | 48.99763 | 2.59028 | 538 ft | 201 kts | 85° |
| 2026-05-06 08:58 | 48.99867 | 2.61177 | 1621 ft | 198 kts | 82° |
| 2026-05-06 08:58 | 48.99991 | 2.63349 | 2407 ft | 216 kts | 82° |
| 2026-05-06 08:58 | 49.00128 | 2.65738 | 2718 ft | 234 kts | 82° |
| 2026-05-06 08:59 | 49.00266 | 2.68259 | 3124 ft | 247 kts | 82° |
| 2026-05-06 08:59 | 49.00401 | 2.70825 | 3834 ft | 247 kts | 82° |
| 2026-05-06 08:59 | 49.00541 | 2.73419 | 4379 ft | 253 kts | 82° |
| 2026-05-06 08:59 | 49.00671 | 2.76154 | 4959 ft | 258 kts | 84° |
| 2026-05-06 09:00 | 49.00560 | 2.78887 | 5564 ft | 263 kts | 95° |
| 2026-05-06 09:00 | 49.00284 | 2.81650 | 6241 ft | 264 kts | 96° |
| 2026-05-06 09:00 | 49.00003 | 2.84383 | 6935 ft | 263 kts | 97° |
| 2026-05-06 09:00 | 48.99727 | 2.87115 | 7589 ft | 263 kts | 97° |
| 2026-05-06 09:01 | 48.99449 | 2.89900 | 8219 ft | 266 kts | 97° |
| 2026-05-06 09:01 | 48.99172 | 2.92684 | 8845 ft | 268 kts | 98° |
| 2026-05-06 09:01 | 48.98691 | 2.95426 | 9366 ft | 272 kts | 119° |
| 2026-05-06 09:01 | 48.97365 | 2.97461 | 9920 ft | 276 kts | 151° |
| 2026-05-06 09:02 | 48.95474 | 2.98167 | 10254 ft | 291 kts | 181° |
| 2026-05-06 09:02 | 48.93538 | 2.97303 | 10478 ft | 308 kts | 210° |
| 2026-05-06 09:02 | 48.92104 | 2.95126 | 10904 ft | 317 kts | 238° |
| 2026-05-06 09:02 | 48.91413 | 2.92008 | 11527 ft | 320 kts | 261° |
| 2026-05-06 09:03 | 48.91231 | 2.88668 | 12098 ft | 324 kts | 267° |
| 2026-05-06 09:03 | 48.91261 | 2.85195 | 12688 ft | 326 kts | 269° |
| 2026-05-06 09:03 | 48.91130 | 2.81801 | 13257 ft | 327 kts | 263° |
| 2026-05-06 09:03 | 48.90519 | 2.78485 | 13757 ft | 328 kts | 244° |
| 2026-05-06 09:04 | 48.89504 | 2.75539 | 14272 ft | 331 kts | 240° |
| 2026-05-06 09:04 | 48.88321 | 2.72516 | 14731 ft | 335 kts | 238° |
| 2026-05-06 09:04 | 48.87069 | 2.69512 | 15233 ft | 338 kts | 237° |
| 2026-05-06 09:04 | 48.85773 | 2.66510 | 15736 ft | 341 kts | 236° |
| 2026-05-06 09:05 | 48.84449 | 2.63503 | 16202 ft | 345 kts | 236° |
| 2026-05-06 09:05 | 48.83096 | 2.60473 | 16667 ft | 348 kts | 235° |
| 2026-05-06 09:05 | 48.81700 | 2.57465 | 17136 ft | 350 kts | 234° |
| 2026-05-06 09:05 | 48.80282 | 2.54446 | 17586 ft | 354 kts | 234° |
| 2026-05-06 09:06 | 48.78845 | 2.51390 | 18004 ft | 357 kts | 234° |
| 2026-05-06 09:06 | 48.77401 | 2.48315 | 18478 ft | 359 kts | 234° |
| 2026-05-06 09:06 | 48.75950 | 2.45228 | 18905 ft | 362 kts | 234° |
| 2026-05-06 09:06 | 48.74482 | 2.42110 | 19327 ft | 364 kts | 234° |
| 2026-05-06 09:07 | 48.72849 | 2.39183 | 19724 ft | 366 kts | 222° |
| 2026-05-06 09:07 | 48.70792 | 2.36896 | 20152 ft | 367 kts | 211° |
| 2026-05-06 09:07 | 48.68628 | 2.34952 | 20548 ft | 370 kts | 210° |
| 2026-05-06 09:07 | 48.66399 | 2.32977 | 20951 ft | 372 kts | 210° |
| 2026-05-06 09:08 | 48.64171 | 2.30989 | 21361 ft | 374 kts | 210° |
| 2026-05-06 09:08 | 48.61887 | 2.28945 | 21777 ft | 376 kts | 210° |
| 2026-05-06 09:08 | 48.59660 | 2.26950 | 22159 ft | 378 kts | 210° |
| 2026-05-06 09:08 | 48.57388 | 2.24913 | 22520 ft | 381 kts | 210° |
| 2026-05-06 09:09 | 48.55099 | 2.22863 | 22884 ft | 384 kts | 210° |
| 2026-05-06 09:09 | 48.52748 | 2.20939 | 23232 ft | 386 kts | 203° |
| 2026-05-06 09:09 | 48.50198 | 2.19702 | 23578 ft | 387 kts | 190° |
| 2026-05-06 09:09 | 48.47507 | 2.19384 | 23936 ft | 389 kts | 178° |
| 2026-05-06 09:10 | 48.44799 | 2.19581 | 24286 ft | 391 kts | 176° |
| 2026-05-06 09:10 | 48.42085 | 2.19835 | 24657 ft | 392 kts | 176° |
| 2026-05-06 09:10 | 48.39358 | 2.20079 | 25007 ft | 394 kts | 176° |
| 2026-05-06 09:10 | 48.36618 | 2.20314 | 25355 ft | 395 kts | 176° |
| 2026-05-06 09:11 | 48.33869 | 2.20544 | 25691 ft | 397 kts | 176° |
| 2026-05-06 09:11 | 48.31107 | 2.20773 | 26014 ft | 399 kts | 175° |
| 2026-05-06 09:11 | 48.28335 | 2.21134 | 26317 ft | 400 kts | 171° |
| 2026-05-06 09:11 | 48.25573 | 2.21766 | 26639 ft | 402 kts | 169° |
| 2026-05-06 09:12 | 48.22805 | 2.22448 | 26933 ft | 405 kts | 169° |
| 2026-05-06 09:12 | 48.20023 | 2.23131 | 27227 ft | 407 kts | 169° |
| 2026-05-06 09:12 | 48.17221 | 2.23815 | 27508 ft | 409 kts | 168° |
| 2026-05-06 09:12 | 48.14398 | 2.24501 | 27774 ft | 412 kts | 168° |
| 2026-05-06 09:13 | 48.11553 | 2.25191 | 28043 ft | 415 kts | 168° |
| 2026-05-06 09:13 | 48.08693 | 2.25841 | 28301 ft | 419 kts | 171° |
| 2026-05-06 09:13 | 48.05766 | 2.26220 | 28472 ft | 425 kts | 173° |
| 2026-05-06 09:13 | 48.02789 | 2.26463 | 28589 ft | 432 kts | 175° |
| 2026-05-06 09:14 | 47.99764 | 2.26641 | 28711 ft | 438 kts | 175° |
| 2026-05-06 09:14 | 47.96720 | 2.26798 | 28819 ft | 444 kts | 175° |